createdAt,value
2023-05-24T00:00:51.134Z,26.68
2023-05-24T00:01:51.165Z,26.67
2023-05-24T00:02:51.291Z,26.67
2023-05-24T00:03:51.321Z,26.67
2023-05-24T00:04:51.221Z,26.67
2023-05-24T00:05:51.248Z,26.67
2023-05-24T00:06:51.273Z,26.66
2023-05-24T00:07:51.285Z,26.66
2023-05-24T00:08:51.314Z,26.66
2023-05-24T00:09:51.292Z,26.65
2023-05-24T00:10:51.350Z,26.66
2023-05-24T00:11:51.397Z,26.65
2023-05-24T00:12:51.416Z,26.64
2023-05-24T00:13:51.405Z,26.65
2023-05-24T00:14:51.430Z,26.65
2023-05-24T00:15:51.475Z,26.64
2023-05-24T00:16:51.490Z,26.64
2023-05-24T00:17:51.517Z,26.64
2023-05-24T00:18:51.561Z,26.64
2023-05-24T00:19:51.604Z,26.63
2023-05-24T00:20:51.607Z,26.63
2023-05-24T00:21:51.621Z,26.63
2023-05-24T00:22:51.661Z,26.62
2023-05-24T00:23:51.655Z,26.62
2023-05-24T00:24:51.671Z,26.62
2023-05-24T00:25:51.672Z,26.61
2023-05-24T00:26:51.728Z,26.61
2023-05-24T00:27:51.729Z,26.61
2023-05-24T00:28:51.758Z,26.60
2023-05-24T00:29:51.776Z,26.60
2023-05-24T00:30:51.769Z,26.60
2023-05-24T00:31:51.897Z,26.60
2023-05-24T00:32:51.871Z,26.60
2023-05-24T00:33:51.876Z,26.60
2023-05-24T00:34:51.875Z,26.60
2023-05-24T00:35:51.933Z,26.60
2023-05-24T00:36:51.970Z,26.60
2023-05-24T00:37:51.942Z,26.59
2023-05-24T00:38:51.987Z,26.59
2023-05-24T00:39:52.002Z,26.59
2023-05-24T00:40:51.996Z,26.58
2023-05-24T00:41:52.035Z,26.58
2023-05-24T00:42:52.068Z,26.57
2023-05-24T00:43:52.087Z,26.57
2023-05-24T00:44:52.094Z,26.56
2023-05-24T00:45:52.157Z,26.56
2023-05-24T00:46:52.121Z,26.56
2023-05-24T00:47:52.193Z,26.56
2023-05-24T00:48:52.151Z,26.56
2023-05-24T00:49:52.192Z,26.56
2023-05-24T00:50:52.192Z,26.56
2023-05-24T00:51:52.235Z,26.55
2023-05-24T00:52:52.252Z,26.55
2023-05-24T00:53:52.294Z,26.55
2023-05-24T00:54:52.292Z,26.56
2023-05-24T00:55:52.281Z,26.55
2023-05-24T00:56:52.335Z,26.55
2023-05-24T00:57:52.344Z,26.54
2023-05-24T00:58:52.350Z,26.53
2023-05-24T00:59:52.413Z,26.53
2023-05-24T01:00:52.394Z,26.53
2023-05-24T01:01:52.551Z,26.53
2023-05-24T01:02:52.507Z,26.53
2023-05-24T01:03:52.534Z,26.52
2023-05-24T01:04:52.491Z,26.53
2023-05-24T01:05:52.536Z,26.52
2023-05-24T01:06:52.552Z,26.51
2023-05-24T01:07:52.597Z,26.51
2023-05-24T01:08:52.634Z,26.52
2023-05-24T01:09:52.628Z,26.51
2023-05-24T01:10:52.653Z,26.50
2023-05-24T01:11:52.656Z,26.51
2023-05-24T01:12:52.694Z,26.50
2023-05-24T01:13:52.711Z,26.50
2023-05-24T01:14:52.749Z,26.50
2023-05-24T01:15:52.784Z,26.50
2023-05-24T01:16:52.779Z,26.49
2023-05-24T01:17:52.817Z,26.49
2023-05-24T01:18:52.835Z,26.49
2023-05-24T01:19:52.864Z,26.49
2023-05-24T01:20:52.845Z,26.48
2023-05-24T01:21:52.891Z,26.49
2023-05-24T01:22:52.920Z,26.48
2023-05-24T01:23:52.938Z,26.47
2023-05-24T01:24:52.974Z,26.47
2023-05-24T01:25:52.988Z,26.47
2023-05-24T01:26:53.021Z,26.47
2023-05-24T01:27:53.043Z,26.46
2023-05-24T01:28:53.071Z,26.46
2023-05-24T01:29:53.122Z,26.46
2023-05-24T01:30:53.146Z,26.46
2023-05-24T01:31:53.255Z,26.46
2023-05-24T01:32:53.222Z,26.46
2023-05-24T01:33:53.219Z,26.46
2023-05-24T01:34:53.229Z,26.45
2023-05-24T01:35:53.249Z,26.45
2023-05-24T01:36:53.235Z,26.44
2023-05-24T01:37:53.274Z,26.44
2023-05-24T01:38:53.282Z,26.44
2023-05-24T01:39:53.374Z,26.44
2023-05-24T01:40:53.343Z,26.43
2023-05-24T01:41:53.364Z,26.44
2023-05-24T01:42:53.392Z,26.44
2023-05-24T01:43:53.417Z,26.43
2023-05-24T01:44:53.433Z,26.43
2023-05-24T01:45:53.452Z,26.43
2023-05-24T01:46:53.602Z,26.43
2023-05-24T01:47:53.537Z,26.42
2023-05-24T01:48:53.564Z,26.42
2023-05-24T01:49:53.561Z,26.42
2023-05-24T01:50:53.606Z,26.41
2023-05-24T01:51:53.603Z,26.41
2023-05-24T01:52:53.612Z,26.41
2023-05-24T01:53:53.623Z,26.42
2023-05-24T01:54:53.653Z,26.41
2023-05-24T01:55:53.698Z,26.40
2023-05-24T01:56:53.710Z,26.41
2023-05-24T01:57:53.718Z,26.40
2023-05-24T01:58:53.744Z,26.40
2023-05-24T01:59:53.794Z,26.40
2023-05-24T02:00:53.850Z,26.39
2023-05-24T02:01:53.869Z,26.39
2023-05-24T02:02:53.905Z,26.38
2023-05-24T02:03:53.856Z,26.39
2023-05-24T02:04:53.925Z,26.38
2023-05-24T02:05:53.946Z,26.39
2023-05-24T02:06:53.944Z,26.38
2023-05-24T02:07:53.991Z,26.38
2023-05-24T02:08:54.008Z,26.37
2023-05-24T02:09:54.066Z,26.38
2023-05-24T02:10:54.059Z,26.37
2023-05-24T02:11:54.141Z,26.38
2023-05-24T02:12:54.094Z,26.37
2023-05-24T02:13:54.135Z,26.36
2023-05-24T02:14:54.177Z,26.37
2023-05-24T02:15:54.216Z,26.37
2023-05-24T02:16:54.251Z,26.36
2023-05-24T02:17:54.316Z,26.36
2023-05-24T02:18:54.281Z,26.36
2023-05-24T02:19:54.318Z,26.36
2023-05-24T02:20:54.355Z,26.35
2023-05-24T02:21:54.356Z,26.35
2023-05-24T02:22:54.506Z,26.35
2023-05-24T02:23:54.418Z,26.35
2023-05-24T02:24:54.411Z,26.35
2023-05-24T02:25:54.486Z,26.35
2023-05-24T02:26:54.493Z,26.35
2023-05-24T02:27:54.548Z,26.35
2023-05-24T02:28:54.525Z,26.34
2023-05-24T02:29:54.580Z,26.34
2023-05-24T02:30:54.623Z,26.34
2023-05-24T02:31:54.643Z,26.34
2023-05-24T02:32:54.726Z,26.34
2023-05-24T02:33:54.703Z,26.34
2023-05-24T02:34:54.716Z,26.34
2023-05-24T02:35:54.759Z,26.34
2023-05-24T02:36:54.811Z,26.34
2023-05-24T02:37:54.805Z,26.33
2023-05-24T02:38:54.817Z,26.33
2023-05-24T02:39:54.845Z,26.33
2023-05-24T02:40:54.898Z,26.33
2023-05-24T02:41:54.939Z,26.33
2023-05-24T02:42:54.941Z,26.31
2023-05-24T02:43:55.029Z,26.31
2023-05-24T02:44:54.993Z,26.31
2023-05-24T02:45:55.052Z,26.32
2023-05-24T02:46:55.082Z,26.31
2023-05-24T02:47:55.170Z,26.30
2023-05-24T02:48:55.154Z,26.30
2023-05-24T02:49:55.167Z,26.30
2023-05-24T02:50:55.187Z,26.29
2023-05-24T02:51:55.270Z,26.29
2023-05-24T02:52:55.304Z,26.30
2023-05-24T02:53:55.331Z,26.30
2023-05-24T02:54:55.352Z,26.29
2023-05-24T02:55:55.377Z,26.28
2023-05-24T02:56:55.408Z,26.28
2023-05-24T02:57:55.453Z,26.29
2023-05-24T02:58:55.528Z,26.28
2023-05-24T02:59:55.535Z,26.28
2023-05-24T03:00:55.558Z,26.28
2023-05-24T03:01:55.657Z,26.28
2023-05-24T03:02:55.850Z,26.28
2023-05-24T03:03:55.721Z,26.27
2023-05-24T03:04:55.710Z,26.27
2023-05-24T03:05:55.704Z,26.27
2023-05-24T03:06:55.743Z,26.27
2023-05-24T03:07:55.801Z,26.27
2023-05-24T03:08:55.848Z,26.27
2023-05-24T03:09:55.913Z,26.27
2023-05-24T03:10:55.915Z,26.27
2023-05-24T03:11:55.949Z,26.26
2023-05-24T03:12:55.977Z,26.26
2023-05-24T03:13:56.017Z,26.26
2023-05-24T03:14:56.055Z,26.25
2023-05-24T03:15:56.088Z,26.26
2023-05-24T03:16:56.164Z,26.25
2023-05-24T03:17:56.183Z,26.25
2023-05-24T03:18:56.247Z,26.25
2023-05-24T03:19:56.274Z,26.24
2023-05-24T03:20:56.291Z,26.24
2023-05-24T03:21:56.315Z,26.24
2023-05-24T03:22:56.369Z,26.24
2023-05-24T03:23:56.406Z,26.24
2023-05-24T03:24:56.418Z,26.23
2023-05-24T03:25:56.491Z,26.24
2023-05-24T03:26:56.512Z,26.23
2023-05-24T03:27:56.531Z,26.23
2023-05-24T03:28:56.558Z,26.23
2023-05-24T03:29:56.605Z,26.23
2023-05-24T03:30:56.641Z,26.23
2023-05-24T03:31:56.759Z,26.23
2023-05-24T03:32:56.779Z,26.23
2023-05-24T03:33:56.778Z,26.23
2023-05-24T03:34:56.821Z,26.23
2023-05-24T03:35:56.888Z,26.22
2023-05-24T03:36:56.914Z,26.23
2023-05-24T03:37:56.908Z,26.22
2023-05-24T03:38:56.986Z,26.23
2023-05-24T03:39:57.026Z,26.22
2023-05-24T03:40:57.054Z,26.22
2023-05-24T03:41:57.096Z,26.22
2023-05-24T03:42:57.148Z,26.21
2023-05-24T03:43:57.156Z,26.21
2023-05-24T03:44:57.239Z,26.21
2023-05-24T03:45:57.266Z,26.21
2023-05-24T03:46:57.279Z,26.21
2023-05-24T03:47:57.365Z,26.20
2023-05-24T03:48:57.349Z,26.21
2023-05-24T03:49:57.407Z,26.21
2023-05-24T03:50:57.467Z,26.20
2023-05-24T03:51:57.464Z,26.20
2023-05-24T03:52:57.535Z,26.20
2023-05-24T03:53:57.592Z,26.20
2023-05-24T03:54:57.615Z,26.20
2023-05-24T03:55:57.643Z,26.19
2023-05-24T03:56:57.665Z,26.19
2023-05-24T03:57:57.713Z,26.19
2023-05-24T03:58:57.774Z,26.18
2023-05-24T03:59:57.790Z,26.19
2023-05-24T04:00:57.890Z,26.19
2023-05-24T04:01:57.916Z,26.19
2023-05-24T04:02:57.951Z,26.15
2023-05-24T04:03:57.949Z,26.08
2023-05-24T04:04:57.947Z,26.03
2023-05-24T04:05:57.977Z,26.02
2023-05-24T04:06:57.995Z,26.02
2023-05-24T04:07:57.961Z,26.04
2023-05-24T04:08:57.993Z,26.06
2023-05-24T04:09:58.040Z,26.06
2023-05-24T04:10:58.031Z,26.05
2023-05-24T04:11:58.074Z,26.01
2023-05-24T04:12:58.024Z,26.00
2023-05-24T04:13:58.037Z,26.01
2023-05-24T04:14:58.043Z,26.02
2023-05-24T04:15:58.042Z,26.03
2023-05-24T04:16:58.101Z,26.01
2023-05-24T04:17:58.149Z,25.98
2023-05-24T04:18:58.111Z,25.98
2023-05-24T04:19:58.079Z,26.00
2023-05-24T04:20:58.077Z,25.99
2023-05-24T04:21:58.082Z,25.98
2023-05-24T04:22:58.088Z,25.97
2023-05-24T04:23:58.099Z,25.97
2023-05-24T04:24:58.177Z,25.96
2023-05-24T04:25:58.103Z,25.95
2023-05-24T04:26:58.140Z,25.96
2023-05-24T04:27:58.127Z,25.98
2023-05-24T04:28:58.271Z,25.99
2023-05-24T04:29:58.139Z,25.98
2023-05-24T04:30:58.148Z,25.98
2023-05-24T04:31:58.135Z,25.97
2023-05-24T04:32:58.254Z,25.96
2023-05-24T04:33:58.192Z,25.96
2023-05-24T04:34:58.250Z,25.95
2023-05-24T04:35:58.329Z,25.98
2023-05-24T04:36:58.355Z,25.99
2023-05-24T04:37:58.421Z,26.01
2023-05-24T04:38:58.443Z,26.03
2023-05-24T04:39:58.543Z,26.04
2023-05-24T04:40:58.570Z,26.05
2023-05-24T04:41:58.586Z,26.07
2023-05-24T04:42:58.643Z,26.09
2023-05-24T04:43:58.646Z,26.10
2023-05-24T04:44:58.763Z,26.12
2023-05-24T04:45:58.776Z,26.12
2023-05-24T04:46:58.968Z,26.13
2023-05-24T04:47:58.938Z,26.15
2023-05-24T04:48:58.899Z,26.15
2023-05-24T04:49:58.956Z,26.17
2023-05-24T04:50:58.974Z,26.17
2023-05-24T04:51:59.032Z,26.18
2023-05-24T04:52:59.065Z,26.18
2023-05-24T04:53:59.121Z,26.17
2023-05-24T04:54:59.180Z,26.17
2023-05-24T04:55:59.208Z,26.17
2023-05-24T04:56:59.224Z,26.17
2023-05-24T04:57:59.304Z,26.16
2023-05-24T04:58:59.303Z,26.16
2023-05-24T04:59:59.375Z,26.17
2023-05-24T05:00:59.423Z,26.16
2023-05-24T05:01:59.586Z,26.16
2023-05-24T05:02:59.586Z,26.15
2023-05-24T05:03:59.580Z,26.15
2023-05-24T05:04:59.633Z,26.15
2023-05-24T05:05:59.661Z,26.16
2023-05-24T05:06:59.681Z,26.14
2023-05-24T05:07:59.795Z,26.15
2023-05-24T05:08:59.786Z,26.15
2023-05-24T05:09:59.826Z,26.15
2023-05-24T05:10:59.858Z,26.16
2023-05-24T05:11:59.899Z,26.16
2023-05-24T05:12:59.959Z,26.15
2023-05-24T05:14:00.047Z,26.17
2023-05-24T05:15:00.122Z,26.15
2023-05-24T05:16:00.166Z,26.15
2023-05-24T05:17:00.178Z,26.15
2023-05-24T05:18:00.298Z,26.14
2023-05-24T05:19:00.261Z,26.16
2023-05-24T05:20:00.286Z,26.15
2023-05-24T05:21:00.327Z,26.16
2023-05-24T05:22:00.383Z,26.15
2023-05-24T05:23:00.444Z,26.16
2023-05-24T05:24:00.468Z,26.16
2023-05-24T05:25:00.464Z,26.17
2023-05-24T05:26:00.531Z,26.17
2023-05-24T05:27:00.583Z,26.17
2023-05-24T05:28:00.627Z,26.18
2023-05-24T05:29:00.674Z,26.18
2023-05-24T05:30:00.753Z,26.18
2023-05-24T05:31:00.751Z,26.19
2023-05-24T05:32:00.849Z,26.19
2023-05-24T05:33:00.987Z,26.20
2023-05-24T05:34:00.881Z,26.17
2023-05-24T05:35:00.939Z,26.16
2023-05-24T05:36:00.998Z,26.17
2023-05-24T05:37:01.066Z,26.19
2023-05-24T05:38:01.117Z,26.20
2023-05-24T05:39:01.118Z,26.21
2023-05-24T05:40:01.175Z,26.21
2023-05-24T05:41:01.185Z,26.23
2023-05-24T05:42:01.248Z,26.21
2023-05-24T05:43:01.318Z,26.15
2023-05-24T05:44:01.331Z,26.14
2023-05-24T05:45:01.267Z,26.16
2023-05-24T05:46:01.567Z,26.10
2023-05-24T05:47:01.285Z,26.11
2023-05-24T05:48:01.371Z,26.10
2023-05-24T05:49:01.299Z,26.07
2023-05-24T05:50:01.305Z,26.07
2023-05-24T05:51:01.353Z,26.04
2023-05-24T05:52:01.311Z,26.01
2023-05-24T05:53:01.549Z,25.99
2023-05-24T05:54:01.392Z,26.02
2023-05-24T05:55:01.401Z,26.04
2023-05-24T05:56:01.408Z,26.03
2023-05-24T05:57:01.850Z,26.04
2023-05-24T05:58:01.388Z,26.06
2023-05-24T05:59:01.401Z,26.06
2023-05-24T06:00:01.375Z,26.03
2023-05-24T06:01:01.378Z,26.02
2023-05-24T06:02:01.401Z,26.00
2023-05-24T06:03:01.442Z,26.01
2023-05-24T06:04:01.513Z,26.00
2023-05-24T06:05:01.449Z,26.01
2023-05-24T06:06:01.467Z,26.02
2023-05-24T06:07:01.647Z,26.04
2023-05-24T06:08:01.493Z,26.06
2023-05-24T06:09:01.466Z,26.07
2023-05-24T06:10:01.753Z,26.09
2023-05-24T06:11:01.473Z,26.10
2023-05-24T06:12:01.482Z,26.11
2023-05-24T06:13:01.511Z,26.10
2023-05-24T06:14:01.525Z,26.10
2023-05-24T06:15:01.523Z,26.11
2023-05-24T06:16:01.567Z,26.09
2023-05-24T06:17:01.509Z,26.09
2023-05-24T06:18:01.525Z,26.10
2023-05-24T06:19:06.320Z,26.12
2023-05-24T06:20:01.658Z,26.10
2023-05-24T06:21:01.580Z,26.11
2023-05-24T06:22:01.573Z,26.11
2023-05-24T06:23:01.587Z,26.11
2023-05-24T06:24:01.536Z,26.10
2023-05-24T06:25:01.553Z,26.10
2023-05-24T06:26:01.560Z,26.09
2023-05-24T06:27:02.801Z,26.09
2023-05-24T06:28:01.504Z,26.07
2023-05-24T06:29:01.541Z,26.04
2023-05-24T06:30:01.584Z,26.04
2023-05-24T06:31:01.610Z,26.03
2023-05-24T06:32:01.658Z,26.00
2023-05-24T06:33:01.720Z,25.97
2023-05-24T06:34:04.428Z,25.94
2023-05-24T06:35:01.710Z,25.92
2023-05-24T06:36:01.686Z,25.89
2023-05-24T06:37:01.678Z,25.88
2023-05-24T06:38:01.687Z,25.84
2023-05-24T06:39:01.626Z,25.79
2023-05-24T06:40:01.636Z,25.79
2023-05-24T06:41:01.616Z,25.79
2023-05-24T06:42:01.609Z,25.85
2023-05-24T06:43:01.597Z,25.84
2023-05-24T06:44:01.606Z,25.86
2023-05-24T06:45:01.642Z,25.87
2023-05-24T06:46:01.636Z,25.88
2023-05-24T06:47:01.632Z,25.91
2023-05-24T06:48:01.716Z,25.91
2023-05-24T06:49:01.671Z,25.92
2023-05-24T06:50:01.712Z,25.90
2023-05-24T06:51:01.566Z,25.88
2023-05-24T06:52:01.561Z,25.90
2023-05-24T06:53:01.581Z,25.94
2023-05-24T06:54:01.530Z,25.95
2023-05-24T06:55:02.053Z,25.95
2023-05-24T06:56:01.543Z,25.97
2023-05-24T06:57:01.518Z,26.01
2023-05-24T06:58:01.550Z,26.02
2023-05-24T06:59:01.510Z,26.01
2023-05-24T07:00:01.512Z,25.99
2023-05-24T07:01:01.522Z,26.01
2023-05-24T07:02:03.977Z,25.99
2023-05-24T07:03:01.545Z,25.98
2023-05-24T07:04:01.482Z,25.98
2023-05-24T07:05:01.508Z,26.00
2023-05-24T07:06:01.460Z,26.01
2023-05-24T07:07:01.438Z,26.00
2023-05-24T07:08:01.462Z,26.02
2023-05-24T07:09:01.461Z,26.02
2023-05-24T07:10:01.433Z,26.02
2023-05-24T07:11:01.422Z,26.03
2023-05-24T07:12:01.998Z,26.04
2023-05-24T07:13:01.429Z,26.06
2023-05-24T07:14:01.407Z,26.08
2023-05-24T07:15:01.376Z,26.08
2023-05-24T07:16:01.389Z,26.08
2023-05-24T07:17:01.420Z,26.10
2023-05-24T07:18:01.386Z,26.11
2023-05-24T07:19:03.907Z,26.14
2023-05-24T07:20:01.479Z,26.14
2023-05-24T07:21:01.462Z,26.19
2023-05-24T07:22:01.349Z,26.19
2023-05-24T07:23:01.460Z,26.22
2023-05-24T07:24:01.321Z,26.24
2023-05-24T07:25:01.293Z,26.26
2023-05-24T07:26:01.317Z,26.30
2023-05-24T07:27:01.563Z,26.28
2023-05-24T07:28:01.297Z,26.36
2023-05-24T07:29:01.331Z,26.40
2023-05-24T07:30:01.264Z,26.41
2023-05-24T07:31:01.270Z,26.46
2023-05-24T07:32:01.352Z,26.48
2023-05-24T07:33:01.945Z,26.51
2023-05-24T07:34:01.287Z,26.54
2023-05-24T07:35:01.293Z,26.55
2023-05-24T07:36:01.230Z,26.52
2023-05-24T07:37:01.236Z,26.52
2023-05-24T07:38:01.268Z,26.52
2023-05-24T07:39:01.219Z,26.52
2023-05-24T07:40:01.463Z,26.55
2023-05-24T07:41:01.192Z,26.58
2023-05-24T07:42:01.240Z,26.58
2023-05-24T07:43:02.683Z,26.56
2023-05-24T07:44:01.452Z,26.55
2023-05-24T07:45:01.479Z,26.59
2023-05-24T07:46:01.601Z,26.64
2023-05-24T07:47:01.578Z,26.63
2023-05-24T07:48:01.806Z,26.62
2023-05-24T07:49:01.710Z,26.65
2023-05-24T07:50:01.986Z,26.68
2023-05-24T07:51:01.780Z,26.70
2023-05-24T07:52:01.765Z,26.74
2023-05-24T07:53:01.801Z,26.78
2023-05-24T07:54:01.771Z,26.83
2023-05-24T07:55:01.882Z,26.83
2023-05-24T07:56:01.785Z,26.83
2023-05-24T07:57:02.019Z,26.85
2023-05-24T07:58:01.806Z,26.87
2023-05-24T07:59:01.810Z,26.89
2023-05-24T08:00:01.821Z,26.91
2023-05-24T08:01:01.846Z,26.88
2023-05-24T08:02:01.897Z,26.88
2023-05-24T08:03:02.034Z,26.88
2023-05-24T08:04:01.881Z,26.88
2023-05-24T08:05:01.839Z,26.91
2023-05-24T08:06:01.887Z,26.93
2023-05-24T08:07:01.961Z,26.93
2023-05-24T08:08:01.868Z,26.90
2023-05-24T08:09:01.871Z,26.87
2023-05-24T08:10:01.916Z,26.87
2023-05-24T08:11:01.889Z,26.87
2023-05-24T08:12:01.954Z,26.85
2023-05-24T08:13:01.964Z,26.85
2023-05-24T08:14:01.968Z,26.82
2023-05-24T08:15:02.175Z,26.80
2023-05-24T08:16:02.071Z,26.78
2023-05-24T08:17:02.046Z,26.77
2023-05-24T08:18:02.060Z,26.72
2023-05-24T08:19:02.034Z,26.67
2023-05-24T08:20:02.191Z,26.64
2023-05-24T08:21:02.059Z,26.59
2023-05-24T08:22:02.080Z,26.60
2023-05-24T08:23:02.123Z,26.61
2023-05-24T08:24:02.147Z,26.58
2023-05-24T08:25:02.156Z,26.55
2023-05-24T08:26:02.158Z,26.53
2023-05-24T08:27:02.162Z,26.52
2023-05-24T08:28:02.196Z,26.53
2023-05-24T08:29:02.198Z,26.51
2023-05-24T08:30:02.286Z,26.53
2023-05-24T08:31:02.299Z,26.55
2023-05-24T08:32:02.354Z,26.55
2023-05-24T08:33:02.373Z,26.53
2023-05-24T08:34:02.314Z,26.52
2023-05-24T08:35:14.907Z,26.54
2023-05-24T08:36:03.345Z,26.53
2023-05-24T08:37:02.338Z,26.51
2023-05-24T08:38:02.339Z,26.51
2023-05-24T08:39:02.345Z,26.49
2023-05-24T08:40:02.316Z,26.50
2023-05-24T08:41:02.289Z,26.50
2023-05-24T08:43:02.671Z,26.44
2023-05-24T08:44:02.303Z,26.43
2023-05-24T08:45:02.293Z,26.43
2023-05-24T08:46:02.309Z,26.43
2023-05-24T08:47:02.722Z,26.46
2023-05-24T08:48:02.301Z,26.44
2023-05-24T08:49:02.238Z,26.45
2023-05-24T08:50:02.269Z,26.48
2023-05-24T08:51:02.244Z,26.49
2023-05-24T08:52:02.242Z,26.52
2023-05-24T08:53:02.269Z,26.50
2023-05-24T08:54:02.243Z,26.52
2023-05-24T08:55:02.218Z,26.55
2023-05-24T08:56:02.205Z,26.58
2023-05-24T08:57:02.200Z,26.59
2023-05-24T08:58:02.221Z,26.59
2023-05-24T08:59:02.200Z,26.62
2023-05-24T09:00:02.212Z,26.63
2023-05-24T09:01:02.249Z,26.65
2023-05-24T09:02:02.236Z,26.67
2023-05-24T09:03:02.156Z,26.69
2023-05-24T09:04:02.242Z,26.67
2023-05-24T09:05:02.215Z,26.69
2023-05-24T09:06:02.113Z,26.71
2023-05-24T09:07:02.125Z,26.73
2023-05-24T09:08:02.150Z,26.75
2023-05-24T09:09:02.097Z,26.75
2023-05-24T09:10:02.150Z,26.72
2023-05-24T09:11:02.081Z,26.72
2023-05-24T09:12:02.088Z,26.74
2023-05-24T09:13:02.096Z,26.78
2023-05-24T09:14:02.070Z,26.79
2023-05-24T09:15:02.080Z,26.84
2023-05-24T09:16:02.129Z,26.86
2023-05-24T09:17:02.108Z,26.87
2023-05-24T09:18:02.080Z,26.88
2023-05-24T09:19:02.037Z,26.91
2023-05-24T09:20:02.135Z,26.95
2023-05-24T09:21:02.044Z,26.98
2023-05-24T09:22:02.021Z,26.95
2023-05-24T09:23:02.014Z,26.94
2023-05-24T09:24:02.037Z,26.91
2023-05-24T09:25:02.007Z,26.85
2023-05-24T09:26:02.005Z,26.81
2023-05-24T09:27:02.459Z,26.77
2023-05-24T09:28:01.968Z,26.75
2023-05-24T09:29:01.974Z,26.74
2023-05-24T09:30:01.987Z,26.73
2023-05-24T09:31:03.400Z,26.72
2023-05-24T09:32:01.998Z,26.72
2023-05-24T09:33:01.970Z,26.73
2023-05-24T09:34:01.929Z,26.77
2023-05-24T09:35:02.060Z,26.83
2023-05-24T09:36:01.950Z,26.85
2023-05-24T09:37:01.913Z,26.88
2023-05-24T09:38:01.901Z,26.87
2023-05-24T09:39:01.909Z,26.86
2023-05-24T09:40:01.925Z,26.85
2023-05-24T09:41:01.911Z,26.81
2023-05-24T09:42:01.884Z,26.77
2023-05-24T09:43:01.919Z,26.76
2023-05-24T09:44:01.852Z,26.73
2023-05-24T09:45:01.970Z,26.71
2023-05-24T09:46:02.117Z,26.68
2023-05-24T09:47:01.973Z,26.67
2023-05-24T09:48:01.922Z,26.67
2023-05-24T09:49:01.825Z,26.64
2023-05-24T09:50:01.818Z,26.62
2023-05-24T09:51:01.971Z,26.61
2023-05-24T09:52:01.990Z,26.59
2023-05-24T09:53:01.833Z,26.56
2023-05-24T09:54:01.805Z,26.60
2023-05-24T09:55:01.817Z,26.67
2023-05-24T09:56:01.788Z,26.73
2023-05-24T09:57:03.494Z,26.77
2023-05-24T09:58:01.763Z,26.80
2023-05-24T09:59:01.799Z,26.85
2023-05-24T10:00:01.817Z,26.88
2023-05-24T10:01:01.862Z,26.90
2023-05-24T10:02:01.786Z,26.89
2023-05-24T10:03:01.825Z,26.90
2023-05-24T10:04:01.884Z,26.83
2023-05-24T10:05:01.776Z,26.77
2023-05-24T10:06:01.994Z,26.74
2023-05-24T10:07:01.729Z,26.74
2023-05-24T10:08:01.693Z,26.74
2023-05-24T10:09:01.711Z,26.75
2023-05-24T10:10:01.700Z,26.73
2023-05-24T10:11:01.693Z,26.68
2023-05-24T10:12:01.707Z,26.66
2023-05-24T10:13:01.687Z,26.64
2023-05-24T10:14:01.703Z,26.64
2023-05-24T10:15:01.671Z,26.63
2023-05-24T10:16:01.649Z,26.65
2023-05-24T10:17:01.758Z,26.66
2023-05-24T10:18:01.892Z,26.66
2023-05-24T10:19:02.417Z,26.67
2023-05-24T10:20:01.717Z,26.67
2023-05-24T10:21:01.808Z,26.68
2023-05-24T10:22:01.646Z,26.67
2023-05-24T10:23:02.064Z,26.69
2023-05-24T10:24:01.643Z,26.69
2023-05-24T10:25:01.600Z,26.69
2023-05-24T10:26:01.656Z,26.70
2023-05-24T10:27:01.580Z,26.69
2023-05-24T10:28:01.653Z,26.69
2023-05-24T10:29:01.571Z,26.71
2023-05-24T10:30:01.614Z,26.74
2023-05-24T10:31:01.660Z,26.74
2023-05-24T10:32:01.608Z,26.73
2023-05-24T10:33:01.548Z,26.73
2023-05-24T10:34:07.690Z,26.74
2023-05-24T10:35:02.937Z,26.73
2023-05-24T10:36:01.518Z,26.73
2023-05-24T10:37:01.485Z,26.73
2023-05-24T10:38:01.538Z,26.74
2023-05-24T10:39:01.512Z,26.72
2023-05-24T10:40:01.579Z,26.69
2023-05-24T10:41:01.580Z,26.68
2023-05-24T10:42:01.445Z,26.69
2023-05-24T10:43:01.465Z,26.71
2023-05-24T10:44:09.743Z,26.71
2023-05-24T10:45:02.465Z,26.70
2023-05-24T10:46:01.448Z,26.72
2023-05-24T10:47:01.428Z,26.71
2023-05-24T10:48:01.489Z,26.70
2023-05-24T10:49:01.430Z,26.69
2023-05-24T10:50:01.413Z,26.71
2023-05-24T10:51:01.397Z,26.72
2023-05-24T10:52:01.383Z,26.71
2023-05-24T10:53:01.456Z,26.71
2023-05-24T10:54:01.424Z,26.72
2023-05-24T10:55:04.291Z,26.75
2023-05-24T10:56:01.461Z,26.74
2023-05-24T10:57:01.469Z,26.75
2023-05-24T10:58:01.657Z,26.77
2023-05-24T10:59:01.812Z,26.76
2023-05-24T11:00:01.646Z,26.76
2023-05-24T11:01:01.491Z,26.77
2023-05-24T11:02:01.489Z,26.78
2023-05-24T11:03:01.576Z,26.78
2023-05-24T11:04:01.414Z,26.77
2023-05-24T11:05:01.468Z,26.77
2023-05-24T11:06:01.440Z,26.78
2023-05-24T11:07:01.391Z,26.78
2023-05-24T11:08:01.440Z,26.78
2023-05-24T11:09:01.421Z,26.77
2023-05-24T11:10:01.398Z,26.77
2023-05-24T11:11:11.457Z,26.77
2023-05-24T11:12:02.366Z,26.75
2023-05-24T11:13:01.351Z,26.75
2023-05-24T11:14:01.469Z,26.73
2023-05-24T11:15:01.333Z,26.71
2023-05-24T11:16:01.385Z,26.68
2023-05-24T11:17:01.342Z,26.70
2023-05-24T11:18:01.444Z,26.69
2023-05-24T11:19:01.452Z,26.67
2023-05-24T11:20:01.470Z,26.68
2023-05-24T11:21:01.316Z,26.66
2023-05-24T11:22:01.310Z,26.64
2023-05-24T11:23:01.251Z,26.61
2023-05-24T11:24:01.319Z,26.56
2023-05-24T11:25:01.255Z,26.52
2023-05-24T11:26:01.278Z,26.48
2023-05-24T11:27:01.250Z,26.43
2023-05-24T11:28:01.254Z,26.41
2023-05-24T11:29:04.086Z,26.39
2023-05-24T11:30:01.276Z,26.38
2023-05-24T11:31:01.289Z,26.38
2023-05-24T11:32:01.355Z,26.38
2023-05-24T11:33:01.248Z,26.37
2023-05-24T11:34:01.325Z,26.34
2023-05-24T11:35:01.189Z,26.33
2023-05-24T11:36:01.240Z,26.31
2023-05-24T11:37:01.212Z,26.27
2023-05-24T11:38:01.176Z,26.26
2023-05-24T11:39:01.215Z,26.26
2023-05-24T11:40:01.236Z,26.24
2023-05-24T11:41:01.238Z,26.23
2023-05-24T11:42:01.182Z,26.20
2023-05-24T11:43:01.198Z,26.18
2023-05-24T11:44:01.184Z,26.17
2023-05-24T11:45:01.150Z,26.21
2023-05-24T11:46:01.228Z,26.21
2023-05-24T11:47:01.218Z,26.21
2023-05-24T11:48:01.264Z,26.20
2023-05-24T11:49:01.129Z,26.23
2023-05-24T11:50:01.224Z,26.19
2023-05-24T11:51:01.106Z,26.17
2023-05-24T11:52:01.102Z,26.14
2023-05-24T11:53:01.104Z,26.15
2023-05-24T11:54:01.136Z,26.14
2023-05-24T11:55:01.142Z,26.14
2023-05-24T11:56:01.116Z,26.18
2023-05-24T11:57:01.144Z,26.21
2023-05-24T11:58:01.228Z,26.22
2023-05-24T11:59:01.391Z,26.25
2023-05-24T12:00:01.300Z,26.28
2023-05-24T12:01:01.273Z,26.30
2023-05-24T12:02:01.403Z,26.34
2023-05-24T12:03:01.346Z,26.36
2023-05-24T12:04:01.447Z,26.37
2023-05-24T12:05:01.479Z,26.39
2023-05-24T12:06:01.337Z,26.40
2023-05-24T12:07:01.416Z,26.42
2023-05-24T12:08:01.423Z,26.43
2023-05-24T12:09:01.420Z,26.43
2023-05-24T12:10:01.472Z,26.45
2023-05-24T12:11:01.445Z,26.46
2023-05-24T12:12:01.480Z,26.46
2023-05-24T12:13:01.508Z,26.46
2023-05-24T12:14:01.534Z,26.47
2023-05-24T12:15:01.636Z,26.46
2023-05-24T12:16:01.594Z,26.47
2023-05-24T12:17:01.591Z,26.47
2023-05-24T12:18:01.621Z,26.47
2023-05-24T12:19:07.093Z,26.48
2023-05-24T12:20:02.666Z,26.47
2023-05-24T12:21:01.647Z,26.48
2023-05-24T12:22:01.719Z,26.48
2023-05-24T12:23:01.590Z,26.49
2023-05-24T12:24:01.622Z,26.50
2023-05-24T12:25:01.614Z,26.49
2023-05-24T12:26:01.628Z,26.49
2023-05-24T12:27:01.632Z,26.49
2023-05-24T12:28:01.588Z,26.50
2023-05-24T12:29:01.597Z,26.50
2023-05-24T12:30:01.568Z,26.50
2023-05-24T12:31:01.633Z,26.50
2023-05-24T12:32:01.582Z,26.50
2023-05-24T12:33:01.557Z,26.50
2023-05-24T12:34:01.595Z,26.50
2023-05-24T12:35:01.542Z,26.50
2023-05-24T12:36:01.535Z,26.50
2023-05-24T12:37:01.528Z,26.51
2023-05-24T12:38:01.527Z,26.51
2023-05-24T12:39:01.510Z,26.51
2023-05-24T12:40:01.567Z,26.51
2023-05-24T12:42:01.870Z,26.51
2023-05-24T12:43:01.500Z,26.52
2023-05-24T12:44:01.518Z,26.52
2023-05-24T12:45:01.509Z,26.52
2023-05-24T12:46:01.524Z,26.52
2023-05-24T12:47:01.538Z,26.52
2023-05-24T12:48:01.534Z,26.52
2023-05-24T12:49:01.475Z,26.52
2023-05-24T12:50:01.470Z,26.52
2023-05-24T12:51:01.442Z,26.52
2023-05-24T12:52:01.447Z,26.52
2023-05-24T12:53:01.462Z,26.52
2023-05-24T12:54:01.456Z,26.52
2023-05-24T12:55:01.435Z,26.52